Time;durP1;ratioP1;P1;durP2;ratioP2;P2;SDS_P1;SDS_P2;PMS_P1;PMS_P2;Temp;Humidity;BMP_temperature;BMP_pressure;BME280_temperature;BME280_humidity;BME280_pressure;Samples;Min_cycle;Max_cycle;Signal;HPM_P1;HPM_P2
2023/01/29 00:00:50;;;;;;;15.32;10.38;;;;;;;-0.74;66.31;93923.59;4971549;28;20054;-77
2023/01/29 00:03:15;;;;;;;15.68;9.75;;;;;;;-0.75;65.85;93899.28;4976703;28;20030;-77
2023/01/29 00:05:41;;;;;;;13.27;9.77;;;;;;;-0.88;66.86;93924.97;4975388;28;20538;-79
2023/01/29 00:08:06;;;;;;;17.38;10.23;;;;;;;-0.94;66.69;93900.59;4975725;28;20034;-76
2023/01/29 00:10:32;;;;;;;15.40;9.80;;;;;;;-1.08;67.11;93894.91;4974838;28;20065;-78
2023/01/29 00:12:57;;;;;;;16.63;11.18;;;;;;;-1.04;67.67;93911.69;4975517;28;20073;-76
2023/01/29 00:15:23;;;;;;;15.07;10.35;;;;;;;-0.75;67.62;93922.81;4974672;28;20371;-78
2023/01/29 00:17:48;;;;;;;15.65;11.32;;;;;;;-0.92;67.48;93910.81;4977893;28;20093;-76
2023/01/29 00:20:14;;;;;;;12.63;9.25;;;;;;;-0.97;66.98;93914.91;4977229;28;20101;-79
2023/01/29 00:22:39;;;;;;;16.58;10.90;;;;;;;-0.95;67.54;93902.41;4979661;28;20503;-78
2023/01/29 00:25:05;;;;;;;15.55;10.10;;;;;;;-0.88;67.34;93925.75;4978297;28;20038;-79
2023/01/29 00:27:31;;;;;;;18.02;12.13;;;;;;;-0.99;68.25;93934.47;4978870;28;20245;-78
2023/01/29 00:30:10;;;;;;;10.98;8.95;;;;;;;-1.16;68.87;93937.06;4977231;28;20038;-78
2023/01/29 00:32:36;;;;;;;14.73;10.80;;;;;;;-1.08;69.11;93936.69;4980608;28;20045;-77
2023/01/29 00:35:02;;;;;;;13.63;9.93;;;;;;;-1.15;68.98;93943.88;4979935;28;20038;-78
2023/01/29 00:37:27;;;;;;;11.75;8.90;;;;;;;-1.35;69.18;93930.47;4980526;28;20074;-76
2023/01/29 00:39:52;;;;;;;15.25;9.70;;;;;;;-1.33;69.47;93938.09;4977953;28;20030;-76
2023/01/29 00:45:02;;;;;;;14.30;9.88;;;;;;;-1.23;69.21;93922.59;4981371;28;20129;-77
2023/01/29 00:47:32;;;;;;;12.60;9.23;;;;;;;-1.25;69.72;93941.09;4982231;28;20034;-76
2023/01/29 00:49:57;;;;;;;15.40;9.02;;;;;;;-1.32;70.05;93935.25;4980826;28;20034;-76
2023/01/29 00:52:23;;;;;;;14.07;9.40;;;;;;;-1.28;69.63;93927.72;4963360;28;20068;-76
2023/01/29 00:54:49;;;;;;;14.35;9.57;;;;;;;-1.22;69.90;93940.63;4979543;28;20144;-76
2023/01/29 00:57:14;;;;;;;16.02;10.88;;;;;;;-1.72;70.88;93896.22;4975493;28;20041;-76
2023/01/29 00:59:40;;;;;;;14.48;9.55;;;;;;;-1.43;71.26;93936.09;4978048;28;20542;-76
2023/01/29 01:04:49;;;;;;;16.20;10.90;;;;;;;-1.51;71.33;93921.59;4978069;28;20577;-76
2023/01/29 01:07:14;;;;;;;15.85;9.82;;;;;;;-1.38;71.39;93936.97;4980790;28;20273;-76
2023/01/29 01:12:24;;;;;;;17.95;10.30;;;;;;;-1.43;70.98;93928.28;4978150;28;20502;-76
2023/01/29 01:14:49;;;;;;;16.85;10.18;;;;;;;-1.61;71.05;93915.44;4979455;28;20132;-76
2023/01/29 01:17:15;;;;;;;13.20;9.00;;;;;;;-1.54;70.82;93910.88;4979848;28;20047;-75
2023/01/29 01:19:40;;;;;;;12.45;9.55;;;;;;;-1.35;70.85;93920.06;4974454;28;20046;-77
2023/01/29 01:22:06;;;;;;;15.25;9.48;;;;;;;-1.53;70.54;93902.81;4961987;28;20038;-77
2023/01/29 01:24:31;;;;;;;16.23;10.52;;;;;;;-1.58;70.71;93888.91;4980523;28;20501;-76
2023/01/29 01:26:56;;;;;;;16.98;11.13;;;;;;;-1.18;70.85;93941.75;4977503;28;20049;-76
2023/01/29 01:29:22;;;;;;;14.25;8.73;;;;;;;-1.36;70.11;93913.25;4979716;28;20487;-76
2023/01/29 01:31:47;;;;;;;12.82;9.60;;;;;;;-1.27;70.46;93905.84;4980007;28;20449;-76
2023/01/29 01:34:13;;;;;;;13.15;9.75;;;;;;;-1.64;70.94;93902.88;4977476;28;20038;-76
2023/01/29 01:36:38;;;;;;;13.63;9.18;;;;;;;-1.56;71.94;93936.41;4980245;28;20053;-76
2023/01/29 01:39:03;;;;;;;17.83;9.57;;;;;;;-1.56;72.15;93936.41;4978344;28;20030;-77
2023/01/29 01:41:29;;;;;;;14.90;8.90;;;;;;;-1.85;72.77;93928.59;4960619;28;20631;-77
2023/01/29 01:44:01;;;;;;;20.17;11.80;;;;;;;-1.86;73.20;93919.19;4975558;28;20038;-77
2023/01/29 01:46:36;;;;;;;15.23;10.32;;;;;;;-2.14;73.36;93892.34;4979580;28;20066;-75
2023/01/29 01:49:08;;;;;;;15.43;9.38;;;;;;;-1.89;73.45;93939.72;4978526;28;20089;-76
2023/01/29 01:51:39;;;;;;;13.88;9.20;;;;;;;-2.17;74.10;93921.44;4980733;28;20062;-75
2023/01/29 01:54:17;;;;;;;12.77;8.40;;;;;;;-2.08;74.13;93926.06;4977279;28;20057;-76
2023/01/29 01:56:48;;;;;;;15.85;10.23;;;;;;;-2.01;74.78;93941.56;4979352;28;20435;-76
2023/01/29 01:59:17;;;;;;;15.90;10.95;;;;;;;-1.95;74.39;93931.00;4977965;28;20030;-76
2023/01/29 02:01:50;;;;;;;15.05;9.38;;;;;;;-1.90;73.70;93928.47;4978457;28;20149;-76
2023/01/29 02:10:07;;;;;;;12.32;8.35;;;;;;;-1.80;72.89;93925.28;4976717;28;20029;-76
2023/01/29 02:12:33;;;;;;;15.38;9.57;;;;;;;-1.65;72.71;93940.41;4973042;28;20014;-77
2023/01/29 02:14:58;;;;;;;13.50;9.30;;;;;;;-1.64;72.50;93916.69;4978636;28;20655;-78
2023/01/29 02:17:24;;;;;;;14.32;9.90;;;;;;;-1.49;72.17;93939.66;4976973;28;20108;-76
2023/01/29 02:20:05;;;;;;;10.40;8.13;;;;;;;-1.61;72.02;93913.63;4978497;28;20049;-76
2023/01/29 02:22:54;;;;;;;11.40;9.05;;;;;;;-1.27;72.02;93960.63;4977139;28;20136;-77
2023/01/29 02:25:25;;;;;;;11.60;8.63;;;;;;;-1.38;72.66;93963.06;4977186;28;20050;-77
2023/01/29 02:28:09;;;;;;;15.98;9.98;;;;;;;-1.15;72.39;93956.91;4979647;28;20026;-76
2023/01/29 02:30:56;;;;;;;14.68;9.35;;;;;;;-1.10;71.79;93967.44;4977029;28;20137;-76
2023/01/29 02:33:35;;;;;;;12.00;8.95;;;;;;;-0.96;71.40;93968.69;4977428;28;20042;-78
2023/01/29 02:36:07;;;;;;;10.70;7.97;;;;;;;-0.82;70.46;93970.97;4978800;28;20165;-76
2023/01/29 02:38:56;;;;;;;11.73;8.98;;;;;;;-0.89;70.27;93952.09;4976089;28;20042;-76
2023/01/29 02:41:30;;;;;;;12.32;8.95;;;;;;;-0.70;69.97;93974.31;4977603;28;20073;-76
2023/01/29 02:43:59;;;;;;;12.05;8.15;;;;;;;-0.66;69.76;93972.81;4978194;28;20045;-77
2023/01/29 02:46:41;;;;;;;12.75;8.45;;;;;;;-0.69;69.97;93981.13;4976818;28;20089;-76
2023/01/29 02:49:27;;;;;;;12.02;8.30;;;;;;;-0.49;69.30;93981.41;4960867;28;20049;-76
2023/01/29 02:52:08;;;;;;;10.85;8.38;;;;;;;-0.81;70.36;93986.41;4961136;28;20034;-76
2023/01/29 02:54:50;;;;;;;12.18;9.10;;;;;;;-0.68;70.26;93967.81;4977900;28;20026;-76
2023/01/29 02:57:19;;;;;;;9.75;7.70;;;;;;;-0.59;69.50;93982.06;4977475;28;20821;-76
2023/01/29 03:00:09;;;;;;;11.10;8.27;;;;;;;-0.55;69.84;93982.38;4977536;28;20084;-76
2023/01/29 03:02:47;;;;;;;10.63;7.05;;;;;;;-0.44;68.82;93978.88;4975910;28;20054;-75
2023/01/29 03:05:24;;;;;;;10.02;7.05;;;;;;;-0.32;68.08;93979.56;4977045;28;20386;-76
2023/01/29 03:07:57;;;;;;;7.88;7.07;;;;;;;-0.40;67.75;93969.53;4975803;28;20034;-76
2023/01/29 03:10:58;;;;;;;8.13;7.00;;;;;;;-0.40;67.47;93979.97;4977837;28;20062;-78
2023/01/29 03:13:29;;;;;;;9.05;6.55;;;;;;;-0.48;67.45;93974.38;4971066;28;20068;-77
2023/01/29 03:16:05;;;;;;;9.70;7.20;;;;;;;-0.43;67.36;93970.00;4975926;28;20560;-76
2023/01/29 03:18:40;;;;;;;8.75;6.45;;;;;;;-0.60;67.12;93953.56;4978342;28;20470;-77
2023/01/29 03:32:18;;;;;;;5.90;4.97;;;;;;;-1.12;67.72;93953.06;4975471;28;20181;-77
2023/01/29 03:34:48;;;;;;;8.15;6.13;;;;;;;-1.19;68.13;93987.13;4973865;28;20120;-76
2023/01/29 03:37:22;;;;;;;7.50;5.55;;;;;;;-1.27;68.72;93990.13;4958357;28;20045;-77
2023/01/29 03:39:48;;;;;;;7.43;5.47;;;;;;;-1.63;69.73;94001.75;4955833;28;20072;-77
2023/01/29 03:42:56;;;;;;;7.10;5.45;;;;;;;-1.62;70.55;93992.09;4977265;28;20458;-76
2023/01/29 03:46:07;;;;;;;7.07;6.28;;;;;;;-1.44;69.85;93991.91;4958277;28;20525;-76
2023/01/29 03:48:48;;;;;;;7.00;5.65;;;;;;;-1.38;69.47;93988.38;4949841;28;20046;-77
2023/01/29 03:51:16;;;;;;;8.48;5.88;;;;;;;-1.47;69.87;93964.47;4978853;28;20158;-77
2023/01/29 03:53:48;;;;;;;7.63;5.50;;;;;;;-1.39;69.54;93971.13;4981272;28;20450;-76
2023/01/29 03:56:20;;;;;;;9.23;6.20;;;;;;;-1.45;70.19;93990.31;4978294;28;20426;-77
2023/01/29 03:59:03;;;;;;;11.48;7.55;;;;;;;-1.25;70.10;93982.06;4981195;28;20431;-76
2023/01/29 04:01:46;;;;;;;6.95;5.68;;;;;;;-0.98;68.75;93986.44;4976997;28;20537;-77
2023/01/29 04:04:19;;;;;;;11.00;7.00;;;;;;;-0.84;68.70;93983.50;4951952;28;20046;-76
2023/01/29 04:06:48;;;;;;;6.88;5.28;;;;;;;-1.26;68.00;93931.66;4978673;28;20033;-77
2023/01/29 04:09:22;;;;;;;9.27;6.25;;;;;;;-1.07;68.53;93992.28;4978956;28;20023;-76
2023/01/29 04:11:53;;;;;;;7.53;5.78;;;;;;;-1.00;68.44;93983.25;4979715;28;20039;-76
2023/01/29 04:14:19;;;;;;;7.38;5.65;;;;;;;-1.10;67.21;93971.88;4980740;28;20038;-77
2023/01/29 04:16:50;;;;;;;17.20;10.23;;;;;;;-0.93;67.35;93990.94;4980587;28;20049;-75
2023/01/29 04:19:16;;;;;;;26.40;14.88;;;;;;;-1.18;67.05;93956.59;4962309;28;20077;-76
2023/01/29 04:21:42;;;;;;;9.25;7.35;;;;;;;-1.20;67.00;93943.78;4978517;28;20490;-77
2023/01/29 04:24:09;;;;;;;8.77;6.22;;;;;;;-0.88;67.10;93991.03;4980220;28;20053;-76
2023/01/29 04:27:16;;;;;;;6.68;4.20;;;;;;;-1.01;67.02;93971.22;4963505;28;20047;-76
2023/01/29 04:30:00;;;;;;;7.55;5.63;;;;;;;-0.77;67.11;94002.41;4978708;28;20026;-77
2023/01/29 04:32:49;;;;;;;5.90;4.75;;;;;;;-0.94;67.05;93976.31;4978319;28;20043;-77
2023/01/29 04:35:27;;;;;;;6.00;5.10;;;;;;;-0.69;66.61;94009.84;4978443;28;20045;-77
2023/01/29 04:38:07;;;;;;;6.90;4.72;;;;;;;-0.86;67.03;93993.38;4977089;28;20046;-77
2023/01/29 04:40:39;;;;;;;7.53;5.53;;;;;;;-1.04;67.28;93997.03;4981452;28;20046;-76
2023/01/29 04:43:21;;;;;;;5.05;4.53;;;;;;;-0.83;67.52;94012.00;4978542;28;20038;-77
2023/01/29 04:46:23;;;;;;;11.88;7.35;;;;;;;-0.64;66.44;94012.53;4981012;28;20112;-78
2023/01/29 04:49:07;;;;;;;7.38;6.05;;;;;;;-0.85;66.29;94008.81;4980267;28;20030;-76
2023/01/29 04:51:51;;;;;;;5.57;4.68;;;;;;;-0.98;67.27;94004.72;4980350;28;21022;-76
2023/01/29 04:54:48;;;;;;;6.35;4.72;;;;;;;-1.03;67.77;94011.66;4979869;28;20034;-76
2023/01/29 04:57:24;;;;;;;5.15;4.53;;;;;;;-0.85;66.90;93998.38;4980209;28;20046;-76
2023/01/29 05:00:37;;;;;;;6.35;5.60;;;;;;;-0.64;66.21;94015.16;4978721;28;20034;-76
2023/01/29 05:03:05;;;;;;;7.65;6.63;;;;;;;-0.77;65.29;94010.22;4977812;28;20050;-75
2023/01/29 05:05:30;;;;;;;6.57;4.82;;;;;;;-0.81;66.24;94011.75;4978412;28;20058;-76
2023/01/29 05:07:57;;;;;;;7.22;4.57;;;;;;;-1.02;66.19;93977.47;4962671;28;20562;-77
2023/01/29 05:10:24;;;;;;;5.90;4.80;;;;;;;-0.92;66.46;94013.41;4978312;28;20070;-75
2023/01/29 05:13:00;;;;;;;6.88;5.20;;;;;;;-1.07;66.56;94000.88;4980841;28;20049;-78
2023/01/29 05:15:33;;;;;;;5.88;4.57;;;;;;;-0.75;66.55;94021.25;4975461;28;20537;-74
2023/01/29 05:18:01;;;;;;;6.20;4.97;;;;;;;-0.73;65.77;94021.81;4981215;28;20038;-75
2023/01/29 05:20:30;;;;;;;6.88;5.60;;;;;;;-0.68;66.23;94014.06;4977570;28;20050;-76
2023/01/29 05:22:56;;;;;;;6.85;5.20;;;;;;;-0.61;65.60;94019.91;4977903;28;20051;-76
2023/01/29 05:25:32;;;;;;;15.88;10.85;;;;;;;-0.53;64.89;94003.81;4977552;28;20771;-75
2023/01/29 05:28:12;;;;;;;10.13;7.47;;;;;;;-0.44;65.07;94025.91;4978445;28;20112;-74
2023/01/29 05:30:39;;;;;;;5.53;4.97;;;;;;;-0.43;64.63;94024.84;4975195;28;20488;-76
2023/01/29 05:33:12;;;;;;;7.45;6.22;;;;;;;-0.39;64.89;94027.81;4976716;28;20022;-75
2023/01/29 05:35:38;;;;;;;12.20;8.45;;;;;;;-0.46;63.96;94011.50;4959659;28;20118;-75
2023/01/29 05:38:03;;;;;;;6.55;5.60;;;;;;;-0.53;64.10;94022.09;4977200;28;20468;-76
2023/01/29 05:40:28;;;;;;;7.32;5.60;;;;;;;-0.59;65.13;94026.47;4977571;28;20038;-77
2023/01/29 05:42:54;;;;;;;6.25;4.75;;;;;;;-0.39;64.66;94033.03;4978377;28;20023;-75
2023/01/29 05:45:19;;;;;;;7.47;6.28;;;;;;;-0.45;64.32;94018.31;4978125;28;20042;-75
2023/01/29 05:47:45;;;;;;;8.55;6.43;;;;;;;-0.28;64.34;94032.91;4976681;28;20578;-76
2023/01/29 05:50:12;;;;;;;13.32;8.95;;;;;;;-0.15;63.45;94035.22;4959091;28;20038;-75
2023/01/29 05:52:38;;;;;;;20.67;14.60;;;;;;;-0.22;64.14;94033.78;4977551;28;20030;-77
2023/01/29 05:55:04;;;;;;;19.13;14.18;;;;;;;-0.18;64.45;94030.44;4975662;28;20065;-77
2023/01/29 05:57:29;;;;;;;23.35;15.48;;;;;;;-0.42;64.51;94018.59;4977254;28;20038;-78
2023/01/29 05:59:55;;;;;;;16.42;12.65;;;;;;;-0.22;64.62;94045.03;4977327;28;20557;-78
2023/01/29 06:02:20;;;;;;;24.55;18.98;;;;;;;-0.17;64.26;94041.69;4979487;28;20090;-77
2023/01/29 06:04:46;;;;;;;24.73;19.20;;;;;;;-0.42;64.98;94036.91;4977005;28;20050;-77
2023/01/29 06:07:11;;;;;;;36.70;22.95;;;;;;;-0.43;65.22;94021.47;4978001;28;20563;-77
2023/01/29 06:09:36;;;;;;;45.80;29.33;;;;;;;-0.60;65.23;94016.25;4978322;28;20026;-77
2023/01/29 06:12:05;;;;;;;15.73;11.05;;;;;;;-0.43;64.98;94053.59;4980013;28;20029;-78
2023/01/29 06:14:30;;;;;;;37.63;25.17;;;;;;;-0.38;65.14;94051.06;4974321;28;20537;-77
2023/01/29 06:16:56;;;;;;;80.10;49.25;;;;;;;-0.63;66.30;94042.88;4975359;28;20033;-78
2023/01/29 06:19:21;;;;;;;93.97;49.13;;;;;;;-0.54;66.52;94067.56;4974360;28;20049;-77
2023/01/29 06:21:47;;;;;;;66.40;38.72;;;;;;;-0.54;67.03;94067.56;4973504;28;20034;-78
2023/01/29 06:24:12;;;;;;;56.53;32.00;;;;;;;-0.61;67.28;94082.59;4976046;28;20105;-77
2023/01/29 06:26:37;;;;;;;60.83;34.28;;;;;;;-0.75;68.44;94073.47;4976370;28;20050;-78
2023/01/29 06:29:03;;;;;;;33.05;19.67;;;;;;;-0.63;68.22;94084.66;4976957;28;20039;-77
2023/01/29 06:31:28;;;;;;;18.45;13.13;;;;;;;-0.57;68.00;94086.31;4977416;28;20039;-78
2023/01/29 06:33:54;;;;;;;16.92;11.00;;;;;;;-0.48;67.46;94089.34;4958794;28;20379;-78
2023/01/29 06:36:19;;;;;;;8.95;7.10;;;;;;;-0.86;68.18;94048.22;4979308;28;20411;-77
2023/01/29 06:38:46;;;;;;;19.73;15.27;;;;;;;-0.46;68.41;94092.50;4975601;28;20042;-78
2023/01/29 06:41:14;;;;;;;10.98;9.10;;;;;;;-0.59;68.50;94080.53;4961891;28;20618;-78
2023/01/29 06:43:39;;;;;;;25.50;22.40;;;;;;;-0.48;68.07;94069.19;4974942;28;20618;-79
2023/01/29 06:46:07;;;;;;;14.68;12.55;;;;;;;-0.27;67.48;94091.22;4977316;28;20034;-77
2023/01/29 06:48:32;;;;;;;16.42;13.20;;;;;;;-0.23;67.63;94087.09;4979184;28;20112;-77
2023/01/29 06:51:06;;;;;;;39.60;29.08;;;;;;;-0.03;66.74;94089.22;4975677;28;20125;-77
2023/01/29 06:53:33;;;;;;;37.38;28.75;;;;;;;0.04;65.70;94097.69;4977291;28;20590;-77
2023/01/29 06:55:58;;;;;;;30.05;24.92;;;;;;;-0.10;65.36;94102.47;4976482;28;20290;-77
2023/01/29 06:58:24;;;;;;;25.88;20.52;;;;;;;-0.15;65.53;94097.97;4975755;28;20483;-77
2023/01/29 07:00:49;;;;;;;15.50;8.10;;;;;;;-0.41;65.71;94088.13;4975041;28;20046;-78
2023/01/29 07:03:14;;;;;;;46.15;27.80;;;;;;;-0.33;66.24;94106.03;4976230;28;20034;-77
2023/01/29 07:05:40;;;;;;;17.60;13.45;;;;;;;-0.56;66.53;94080.06;4974906;28;20623;-78
2023/01/29 07:08:05;;;;;;;15.88;12.55;;;;;;;-0.58;67.27;94108.25;4975322;28;20046;-77
2023/01/29 07:10:31;;;;;;;15.18;12.50;;;;;;;-0.45;67.64;94118.41;4975012;28;20403;-78
2023/01/29 07:12:58;;;;;;;11.13;9.68;;;;;;;-0.63;68.21;94098.50;4975064;28;20042;-79
2023/01/29 07:15:23;;;;;;;17.63;15.38;;;;;;;-0.62;67.96;94094.06;4975058;28;20141;-77
2023/01/29 07:17:59;;;;;;;19.05;16.02;;;;;;;-0.53;67.53;94095.25;4977917;28;20091;-77
2023/01/29 07:20:27;;;;;;;8.98;8.10;;;;;;;-0.37;67.27;94127.66;4976265;28;20066;-77
2023/01/29 07:22:52;;;;;;;16.35;11.80;;;;;;;-0.36;67.68;94132.66;4977378;28;20039;-78
2023/01/29 07:25:18;;;;;;;13.05;9.82;;;;;;;-0.51;67.68;94098.44;4973666;28;20574;-78
2023/01/29 07:27:43;;;;;;;16.17;11.40;;;;;;;-0.31;67.74;94111.81;4980948;28;20015;-77
2023/01/29 07:30:09;;;;;;;10.45;7.63;;;;;;;-0.49;66.50;94106.84;4979745;28;20649;-77
2023/01/29 07:32:35;;;;;;;16.25;12.35;;;;;;;-0.34;67.10;94124.56;4980458;28;20035;-77
2023/01/29 07:35:00;;;;;;;19.83;15.85;;;;;;;-0.32;67.09;94128.53;4979511;28;20046;-77
2023/01/29 07:37:25;;;;;;;22.10;17.55;;;;;;;-0.48;66.70;94097.94;4981596;28;20297;-77
2023/01/29 07:39:51;;;;;;;19.95;15.90;;;;;;;-0.69;67.78;94099.47;4983063;28;20553;-76
2023/01/29 07:42:16;;;;;;;19.17;15.45;;;;;;;-0.58;68.41;94113.47;4979042;28;20031;-77
2023/01/29 07:44:41;;;;;;;20.33;15.50;;;;;;;-0.31;67.82;94145.00;4983148;28;20124;-77
2023/01/29 07:47:07;;;;;;;18.27;15.02;;;;;;;-0.54;68.23;94111.97;4977507;28;20100;-78
2023/01/29 07:49:32;;;;;;;17.65;13.73;;;;;;;-0.53;68.79;94121.38;4982937;28;20466;-77
2023/01/29 07:51:57;;;;;;;12.20;9.70;;;;;;;-0.61;68.95;94116.56;4979694;28;20172;-77
2023/01/29 07:54:23;;;;;;;13.98;10.00;;;;;;;-0.33;68.25;94142.63;4980804;28;20037;-77
2023/01/29 07:56:48;;;;;;;16.75;12.05;;;;;;;-0.52;68.86;94149.09;4981636;28;20045;-77
2023/01/29 07:59:13;;;;;;;18.33;15.43;;;;;;;-0.56;69.02;94142.75;4980933;28;20116;-77
2023/01/29 08:01:39;;;;;;;17.00;11.32;;;;;;;-0.55;68.39;94149.56;4978258;28;20108;-78
2023/01/29 08:04:04;;;;;;;15.35;11.40;;;;;;;-0.61;68.74;94145.28;4976465;28;20051;-77
2023/01/29 08:06:29;;;;;;;16.15;11.27;;;;;;;-0.78;69.73;94152.31;4961631;28;20022;-77
2023/01/29 08:08:56;;;;;;;18.75;13.35;;;;;;;-0.87;69.59;94136.22;4979590;28;20038;-76
2023/01/29 08:11:22;;;;;;;15.20;12.13;;;;;;;-0.76;70.01;94132.75;4981075;28;20042;-77
2023/01/29 08:13:47;;;;;;;16.27;11.27;;;;;;;-0.78;70.17;94137.44;4978753;28;20049;-76
2023/01/29 08:16:13;;;;;;;21.13;14.63;;;;;;;-0.59;70.08;94153.69;4979952;28;20550;-78
2023/01/29 08:18:41;;;;;;;19.15;13.57;;;;;;;-0.59;69.14;94130.19;4962078;28;20067;-76
2023/01/29 08:21:06;;;;;;;15.07;11.88;;;;;;;-0.62;69.13;94136.66;4955911;28;20366;-77
2023/01/29 08:23:31;;;;;;;14.13;10.77;;;;;;;-0.46;69.63;94163.03;4978188;28;20046;-76
2023/01/29 08:25:57;;;;;;;14.10;10.18;;;;;;;-0.70;69.84;94136.25;4976656;28;20081;-77
2023/01/29 08:28:22;;;;;;;17.15;12.70;;;;;;;-0.57;69.71;94136.75;4976687;28;20568;-77
2023/01/29 08:30:48;;;;;;;15.48;11.30;;;;;;;-0.41;70.28;94168.34;4977954;28;20045;-76
2023/01/29 08:33:13;;;;;;;16.02;10.63;;;;;;;-0.36;69.61;94171.84;4977799;28;20037;-77
2023/01/29 08:35:40;;;;;;;22.08;16.77;;;;;;;-0.62;69.44;94146.31;4977740;28;20048;-77
2023/01/29 08:38:05;;;;;;;19.77;13.98;;;;;;;-0.42;69.54;94172.78;4979349;28;20042;-77
2023/01/29 08:40:32;;;;;;;18.77;14.05;;;;;;;-0.26;69.02;94177.25;4977410;28;20097;-77
2023/01/29 08:42:59;;;;;;;19.02;13.07;;;;;;;-0.19;67.77;94169.25;4974453;28;20057;-77
2023/01/29 08:45:25;;;;;;;27.92;19.63;;;;;;;-0.27;66.54;94162.59;4956446;28;20044;-77
2023/01/29 08:47:50;;;;;;;33.58;23.13;;;;;;;-0.45;67.45;94162.81;4973308;28;20042;-79
2023/01/29 08:50:16;;;;;;;52.30;28.92;;;;;;;-0.15;66.51;94186.03;4977665;28;20081;-77
2023/01/29 08:52:43;;;;;;;58.90;33.75;;;;;;;-0.37;66.52;94162.41;4977957;28;20037;-78
2023/01/29 08:55:09;;;;;;;65.80;34.35;;;;;;;-0.16;66.91;94189.69;4969764;28;20046;-77
2023/01/29 08:57:35;;;;;;;90.68;46.97;;;;;;;-0.28;67.43;94187.13;4975752;28;20121;-78
2023/01/29 09:00:01;;;;;;;39.22;22.90;;;;;;;-0.21;67.07;94202.69;4971590;28;20090;-77
2023/01/29 09:02:26;;;;;;;50.50;27.95;;;;;;;-0.40;66.49;94172.56;4973400;28;20057;-78
2023/01/29 09:04:51;;;;;;;35.90;21.40;;;;;;;-0.43;67.23;94192.09;4971040;28;20339;-77
2023/01/29 09:07:17;;;;;;;43.97;22.38;;;;;;;-0.37;67.65;94199.00;4975602;28;20049;-78
2023/01/29 09:09:42;;;;;;;76.18;38.85;;;;;;;-0.26;67.59;94203.38;4974229;28;20521;-78
2023/01/29 09:12:07;;;;;;;46.70;26.95;;;;;;;-0.38;67.27;94178.31;4976590;28;20028;-77
2023/01/29 09:14:33;;;;;;;54.72;28.40;;;;;;;-0.24;66.77;94187.47;4975231;28;20462;-78
2023/01/29 09:16:58;;;;;;;49.97;26.33;;;;;;;-0.20;65.67;94178.91;4981723;28;20054;-78
2023/01/29 09:19:24;;;;;;;36.40;21.70;;;;;;;-0.22;65.62;94180.97;4973903;28;20495;-77
2023/01/29 09:21:49;;;;;;;43.20;23.95;;;;;;;-0.07;65.86;94199.50;4974109;28;20288;-77
2023/01/29 09:24:15;;;;;;;52.10;31.33;;;;;;;-0.14;65.80;94193.63;4972555;28;20490;-77
2023/01/29 09:26:40;;;;;;;52.85;30.27;;;;;;;-0.13;65.55;94195.22;4959917;28;20581;-76
2023/01/29 09:29:06;;;;;;;31.35;17.77;;;;;;;-0.29;66.20;94196.03;4954754;28;20031;-77
2023/01/29 09:31:31;;;;;;;22.70;15.95;;;;;;;-0.21;66.40;94187.78;4955673;28;20096;-76
2023/01/29 09:33:57;;;;;;;22.23;13.85;;;;;;;-1.20;66.44;94035.13;4969235;28;20034;-76
2023/01/29 09:36:22;;;;;;;25.13;16.05;;;;;;;-0.32;66.69;94190.44;4970177;28;20578;-76
2023/01/29 09:38:48;;;;;;;30.63;18.90;;;;;;;-0.52;66.36;94160.34;4973680;28;20034;-75
2023/01/29 09:41:37;;;;;;;17.65;11.57;;;;;;;-0.69;66.70;94148.28;4975075;28;20047;-75
2023/01/29 09:44:15;;;;;;;24.73;17.08;;;;;;;-0.47;67.13;94172.69;4942842;28;20129;-75
2023/01/29 09:46:43;;;;;;;22.52;14.98;;;;;;;-0.40;67.32;94160.28;4950221;28;20073;-76
2023/01/29 09:49:23;;;;;;;26.02;18.92;;;;;;;-0.41;68.39;94140.41;4976068;28;20057;-79
2023/01/29 09:52:04;;;;;;;19.45;13.05;;;;;;;-0.00;66.13;94161.97;4976848;28;20557;-78
2023/01/29 09:54:54;;;;;;;46.22;27.30;;;;;;;0.11;65.60;94169.69;4977323;28;20041;-78
2023/01/29 09:57:45;;;;;;;43.22;28.33;;;;;;;0.28;65.04;94156.63;4957373;28;20097;-79
2023/01/29 10:00:20;;;;;;;36.22;23.48;;;;;;;0.12;64.32;94128.66;4966541;28;20141;-77
2023/01/29 10:03:01;;;;;;;23.92;15.50;;;;;;;0.40;64.37;94172.22;4974353;28;20042;-78
2023/01/29 10:05:49;;;;;;;21.67;15.63;;;;;;;0.29;64.67;94166.06;4975276;28;20038;-77
2023/01/29 10:08:24;;;;;;;30.08;21.55;;;;;;;0.28;64.51;94167.06;4967871;28;20057;-77
2023/01/29 10:10:58;;;;;;;22.27;13.57;;;;;;;0.01;65.41;94153.84;4976309;28;20655;-78
2023/01/29 10:13:33;;;;;;;22.60;15.55;;;;;;;-0.14;66.12;94115.19;4974517;28;20038;-78
2023/01/29 10:16:14;;;;;;;17.15;12.57;;;;;;;0.23;65.47;94161.78;4977414;28;20038;-80
2023/01/29 10:19:09;;;;;;;21.88;14.15;;;;;;;0.10;65.95;94160.28;4975836;28;20609;-78
2023/01/29 10:22:07;;;;;;;18.60;13.90;;;;;;;0.15;65.15;94149.13;4933733;28;20129;-77
2023/01/29 10:24:47;;;;;;;22.10;15.30;;;;;;;0.10;65.20;94151.66;4978165;28;20443;-78
2023/01/29 10:27:15;;;;;;;23.70;16.85;;;;;;;0.23;65.01;94146.06;4951618;28;20132;-77
2023/01/29 10:29:43;;;;;;;28.30;21.35;;;;;;;-0.00;64.56;94122.75;4954314;28;20708;-77
2023/01/29 10:32:17;;;;;;;18.70;13.20;;;;;;;0.06;65.10;94150.53;4967031;28;20529;-76
2023/01/29 10:34:49;;;;;;;26.20;17.30;;;;;;;-0.12;65.49;94154.19;4953639;28;20030;-76
2023/01/29 10:37:18;;;;;;;21.23;15.02;;;;;;;-0.70;66.18;94073.56;4951256;28;20438;-76
2023/01/29 10:39:44;;;;;;;27.90;18.27;;;;;;;-0.49;67.31;94122.50;4956635;28;20022;-78
2023/01/29 10:42:27;;;;;;;28.30;17.63;;;;;;;-0.29;67.03;94135.91;4975478;28;20642;-78
2023/01/29 10:45:30;;;;;;;39.95;24.42;;;;;;;-0.14;66.65;94138.72;4970563;28;20129;-77
2023/01/29 10:48:03;;;;;;;25.23;15.40;;;;;;;-0.04;66.64;94145.16;4972919;28;20092;-78
2023/01/29 10:50:44;;;;;;;27.50;17.35;;;;;;;0.02;66.36;94145.00;4972012;28;20605;-79
2023/01/29 10:53:54;;;;;;;38.42;22.73;;;;;;;-0.11;66.71;94146.13;4972736;28;20038;-78
2023/01/29 10:56:33;;;;;;;29.27;18.13;;;;;;;-0.13;67.31;94137.72;4874197;29;20048;-78
2023/01/29 10:59:04;;;;;;;22.13;14.63;;;;;;;-0.35;67.11;94115.16;4895119;29;20050;-78
2023/01/29 11:01:29;;;;;;;25.35;15.98;;;;;;;-0.40;67.51;94131.53;4939721;28;20046;-76
2023/01/29 11:03:58;;;;;;;24.48;14.90;;;;;;;-0.27;67.14;94140.88;4970179;28;20026;-75
2023/01/29 11:06:29;;;;;;;23.50;14.60;;;;;;;-0.36;67.58;94131.84;4976230;28;20371;-75
2023/01/29 11:09:15;;;;;;;29.65;16.90;;;;;;;-0.18;67.22;94140.25;4957792;28;20144;-80
2023/01/29 11:12:05;;;;;;;23.30;16.83;;;;;;;-0.16;66.89;94127.75;4974574;28;20494;-78
2023/01/29 11:14:43;;;;;;;25.85;17.02;;;;;;;-0.25;67.02;94113.50;4955520;28;20134;-76
2023/01/29 11:17:20;;;;;;;25.40;15.45;;;;;;;-0.12;66.88;94128.84;4969323;28;20580;-78
2023/01/29 11:19:47;;;;;;;22.85;15.57;;;;;;;-0.16;66.93;94121.72;4953064;28;20505;-78
2023/01/29 11:22:18;;;;;;;22.40;14.20;;;;;;;-0.31;67.39;94119.66;4972039;28;20640;-77
2023/01/29 11:24:45;;;;;;;31.70;18.40;;;;;;;-0.35;68.29;94115.16;4968884;28;20230;-77
2023/01/29 11:27:25;;;;;;;32.72;20.60;;;;;;;-0.53;69.04;94082.97;4968659;28;20027;-79
2023/01/29 11:29:54;;;;;;;25.70;16.80;;;;;;;-0.08;68.21;94111.63;4944989;28;20030;-81
2023/01/29 11:32:20;;;;;;;30.70;19.85;;;;;;;-0.01;67.88;94110.69;4968805;28;20033;-81
2023/01/29 11:34:55;;;;;;;27.92;16.13;;;;;;;0.10;67.42;94112.44;4955419;28;20042;-79
2023/01/29 11:37:21;;;;;;;26.25;18.08;;;;;;;0.15;65.97;94086.34;4972842;28;20404;-80
2023/01/29 11:39:46;;;;;;;23.25;16.88;;;;;;;0.20;66.03;94091.63;4971537;28;20041;-80
2023/01/29 11:42:21;;;;;;;26.80;17.05;;;;;;;0.05;65.78;94049.59;4973108;28;20033;-79
2023/01/29 11:44:47;;;;;;;28.60;16.45;;;;;;;0.17;65.63;94076.41;4955823;28;20039;-79
2023/01/29 11:47:17;;;;;;;30.60;19.17;;;;;;;0.25;66.38;94078.63;4972835;28;20162;-81
2023/01/29 11:49:46;;;;;;;25.15;15.80;;;;;;;0.29;65.78;94079.72;4972649;28;20042;-79
2023/01/29 11:52:15;;;;;;;24.58;15.93;;;;;;;0.02;66.73;94081.44;4957461;28;20038;-77
2023/01/29 11:54:49;;;;;;;21.17;15.15;;;;;;;0.11;66.37;94075.53;4970897;28;20026;-81
2023/01/29 11:57:34;;;;;;;25.30;16.20;;;;;;;0.22;66.35;94084.31;4972250;28;20026;-78
2023/01/29 12:00:34;;;;;;;28.27;16.77;;;;;;;-0.08;67.75;94088.09;4969197;28;20181;-77
2023/01/29 12:03:21;;;;;;;27.35;17.30;;;;;;;0.05;67.38;94091.44;4917654;28;20039;-77
2023/01/29 12:06:17;;;;;;;26.70;16.70;;;;;;;0.08;67.14;94080.47;4970783;28;20050;-79